createdAt,value
2022-09-10T00:01:27.812Z,3.80
2022-09-10T00:04:17.847Z,4.10
2022-09-10T00:07:06.737Z,4.60
2022-09-10T00:09:55.551Z,4.07
2022-09-10T00:12:44.815Z,3.70
2022-09-10T00:15:33.620Z,3.93
2022-09-10T00:18:24.672Z,3.90
2022-09-10T00:21:14.393Z,3.90
2022-09-10T00:24:03.395Z,4.50
2022-09-10T00:26:52.215Z,4.10
2022-09-10T00:29:40.982Z,3.60
2022-09-10T00:32:29.770Z,3.70
2022-09-10T00:35:20.540Z,3.50
2022-09-10T00:38:09.948Z,4.40
2022-09-10T00:41:04.574Z,4.93
2022-09-10T00:43:54.537Z,3.77
2022-09-10T00:46:44.244Z,4.33
2022-09-10T00:49:34.080Z,3.87
2022-09-10T00:52:24.227Z,3.00
2022-09-10T00:55:13.484Z,3.77
2022-09-10T00:58:03.805Z,3.47
2022-09-10T01:00:54.739Z,3.07
2022-09-10T01:03:44.139Z,4.60
2022-09-10T01:06:33.414Z,3.17
2022-09-10T01:09:24.534Z,3.17
2022-09-10T01:12:20.466Z,3.40
2022-09-10T01:15:13.072Z,3.70
2022-09-10T01:18:10.391Z,3.63
2022-09-10T01:21:03.294Z,4.23
2022-09-10T01:24:25.398Z,3.80
2022-09-10T01:27:24.819Z,3.90
2022-09-10T01:30:15.644Z,4.07
2022-09-10T01:33:12.642Z,3.43
2022-09-10T01:36:03.263Z,3.57
2022-09-10T01:38:52.192Z,3.10
2022-09-10T01:41:41.072Z,2.90
2022-09-10T01:44:47.764Z,2.90
2022-09-10T01:47:43.750Z,3.57
2022-09-10T01:50:34.983Z,3.37
2022-09-10T02:01:10.833Z,3.90
2022-09-10T02:04:01.448Z,3.53
2022-09-10T02:06:51.493Z,3.63
2022-09-10T02:09:40.371Z,3.20
2022-09-10T02:12:29.745Z,3.10
2022-09-10T02:15:19.684Z,3.10
2022-09-10T02:18:10.018Z,3.37
2022-09-10T02:20:59.676Z,3.50
2022-09-10T02:23:52.023Z,2.87
2022-09-10T02:26:42.471Z,3.33
2022-09-10T02:29:31.263Z,3.27
2022-09-10T02:32:20.058Z,3.70
2022-09-10T02:35:10.607Z,3.07
2022-09-10T02:37:59.870Z,3.80
2022-09-10T02:40:49.372Z,3.60
2022-09-10T02:43:38.421Z,3.17
2022-09-10T02:46:27.282Z,3.90
2022-09-10T02:49:16.152Z,3.30
2022-09-10T02:52:06.719Z,3.80
2022-09-10T02:54:56.015Z,3.40
2022-09-10T02:57:45.353Z,3.87
2022-09-10T03:00:34.527Z,3.73
2022-09-10T03:03:23.319Z,3.97
2022-09-10T03:06:12.514Z,3.80
2022-09-10T03:09:02.749Z,3.03
2022-09-10T03:11:52.009Z,3.07
2022-09-10T03:14:40.806Z,3.90
2022-09-10T03:17:29.744Z,3.70
2022-09-10T03:20:18.966Z,3.10
2022-09-10T03:23:08.047Z,4.80
2022-09-10T03:25:59.593Z,3.30
2022-09-10T03:28:48.678Z,4.50
2022-09-10T03:31:37.508Z,4.70
2022-09-10T03:34:26.296Z,3.50
2022-09-10T03:37:15.275Z,3.00
2022-09-10T03:40:04.694Z,3.00
2022-09-10T03:42:54.968Z,2.70
2022-09-10T03:45:44.047Z,2.40
2022-09-10T03:48:33.239Z,3.40
2022-09-10T03:51:23.112Z,2.90
2022-09-10T03:54:13.869Z,3.77
2022-09-10T03:57:02.948Z,3.10
2022-09-10T03:59:53.147Z,3.10
2022-09-10T04:02:42.051Z,3.13
2022-09-10T04:05:32.220Z,3.23
2022-09-10T04:08:21.488Z,3.40
2022-09-10T04:11:10.307Z,3.20
2022-09-10T04:13:59.091Z,3.43
2022-09-10T04:16:49.288Z,3.90
2022-09-10T04:19:38.159Z,3.97
2022-09-10T04:22:28.133Z,4.60
2022-09-10T04:25:17.248Z,5.30
2022-09-10T04:28:06.144Z,5.40
2022-09-10T04:30:54.989Z,5.60
2022-09-10T04:33:45.223Z,5.80
2022-09-10T04:36:34.322Z,5.70
2022-09-10T04:39:23.139Z,6.10
2022-09-10T04:42:14.981Z,6.47
2022-09-10T04:45:03.800Z,6.57
2022-09-10T04:47:54.124Z,7.10
2022-09-10T04:51:05.445Z,9.47
2022-09-10T04:53:53.058Z,7.70
2022-09-10T04:56:41.878Z,7.70
2022-09-10T04:59:31.457Z,7.93
2022-09-10T05:02:20.229Z,7.37
2022-09-10T05:05:09.658Z,8.90
2022-09-10T05:08:00.193Z,8.33
2022-09-10T05:10:49.240Z,8.67
2022-09-10T05:13:38.069Z,8.00
2022-09-10T05:16:26.925Z,8.17
2022-09-10T05:19:17.879Z,7.20
2022-09-10T05:22:06.812Z,7.70
2022-09-10T05:24:56.926Z,9.27
2022-09-10T05:27:45.854Z,8.20
2022-09-10T05:30:34.643Z,9.97
2022-09-10T05:33:23.537Z,9.50
2022-09-10T05:36:12.380Z,8.73
2022-09-10T05:39:01.679Z,10.07
2022-09-10T05:41:52.202Z,10.70
2022-09-10T05:44:41.311Z,8.00
2022-09-10T05:47:30.094Z,7.47
2022-09-10T05:50:18.903Z,5.57
2022-09-10T05:53:07.663Z,5.30
2022-09-10T05:55:56.455Z,5.60
2022-09-10T05:58:46.597Z,7.30
2022-09-10T06:01:35.415Z,7.17
2022-09-10T06:04:24.205Z,6.27
2022-09-10T06:07:13.244Z,7.13
2022-09-10T06:10:01.997Z,6.53
2022-09-10T06:12:52.679Z,6.37
2022-09-10T06:15:43.155Z,6.07
2022-09-10T06:18:33.134Z,5.10
2022-09-10T06:21:26.178Z,6.53
2022-09-10T06:24:17.077Z,4.90
2022-09-10T06:27:06.323Z,5.73
2022-09-10T06:29:56.299Z,5.60
2022-09-10T06:32:46.426Z,5.57
2022-09-10T06:35:35.510Z,6.40
2022-09-10T06:38:24.680Z,6.13
2022-09-10T06:41:14.189Z,5.77
2022-09-10T06:44:03.119Z,7.93
2022-09-10T06:47:25.859Z,8.70
2022-09-10T06:50:02.010Z,7.57
2022-09-10T06:52:51.471Z,8.50
2022-09-10T06:55:40.268Z,8.57
2022-09-10T06:58:29.617Z,7.47
2022-09-10T07:01:19.213Z,7.90
2022-09-10T07:04:08.430Z,7.73
2022-09-10T07:06:59.688Z,6.13
2022-09-10T07:09:48.474Z,7.20
2022-09-10T07:12:37.251Z,7.17
2022-09-10T07:15:26.399Z,6.23
2022-09-10T07:18:15.398Z,7.60
2022-09-10T07:21:11.119Z,5.50
2022-09-10T07:24:02.061Z,6.00
2022-09-10T07:26:51.428Z,5.50
2022-09-10T07:29:40.557Z,5.00
2022-09-10T07:32:29.839Z,4.97
2022-09-10T07:35:18.960Z,5.20
2022-09-10T07:38:08.055Z,5.20
2022-09-10T07:41:00.701Z,4.30
2022-09-10T07:43:49.661Z,4.73
2022-09-10T07:46:38.865Z,5.43
2022-09-10T07:49:27.780Z,4.77
2022-09-10T07:52:18.486Z,5.20
2022-09-10T07:55:07.695Z,3.90
2022-09-10T07:58:00.091Z,4.10
2022-09-10T08:00:49.190Z,4.63
2022-09-10T08:03:38.435Z,3.90
2022-09-10T08:06:27.277Z,4.77
2022-09-10T08:09:16.306Z,3.50
2022-09-10T08:12:07.557Z,4.27
2022-09-10T08:14:58.747Z,3.77
2022-09-10T08:17:47.523Z,3.87
2022-09-10T08:20:36.287Z,3.77
2022-09-10T08:23:25.161Z,4.60
2022-09-10T08:26:13.930Z,5.00
2022-09-10T08:29:04.022Z,4.67
2022-09-10T08:31:54.447Z,4.60
2022-09-10T08:34:43.251Z,4.63
2022-09-10T08:37:33.356Z,5.17
2022-09-10T08:40:23.571Z,3.50
2022-09-10T08:43:13.132Z,4.00
2022-09-10T08:46:03.704Z,3.70
2022-09-10T08:48:56.619Z,4.03
2022-09-10T08:51:48.331Z,4.70
2022-09-10T08:54:39.555Z,3.80
2022-09-10T08:57:31.764Z,4.77
2022-09-10T09:00:22.969Z,3.40
2022-09-10T09:03:15.617Z,3.40
2022-09-10T09:06:09.107Z,3.20
2022-09-10T09:09:00.909Z,3.30
2022-09-10T09:11:56.869Z,3.10
2022-09-10T09:14:52.471Z,3.93
2022-09-10T09:17:54.865Z,3.13
2022-09-10T09:20:46.492Z,3.33
2022-09-10T09:23:56.891Z,3.13
2022-09-10T09:26:49.685Z,3.83
2022-09-10T09:29:43.536Z,3.87
2022-09-10T09:32:34.866Z,3.70
2022-09-10T09:35:26.422Z,2.70
2022-09-10T09:38:19.740Z,2.97
2022-09-10T09:41:15.655Z,3.53
2022-09-10T09:44:07.358Z,2.90
2022-09-10T09:46:56.379Z,3.00
2022-09-10T09:49:45.323Z,3.50
2022-09-10T09:52:34.665Z,3.20
2022-09-10T09:55:28.234Z,3.50
2022-09-10T09:58:35.188Z,3.60
2022-09-10T10:01:25.006Z,3.20
2022-09-10T10:04:21.377Z,3.47
2022-09-10T10:07:11.792Z,3.67
2022-09-10T10:10:01.322Z,4.10
2022-09-10T10:12:51.210Z,3.00
2022-09-10T10:15:42.489Z,3.53
2022-09-10T10:18:32.653Z,4.03
2022-09-10T10:21:23.355Z,4.00
2022-09-10T10:24:30.763Z,4.27
2022-09-10T10:27:21.919Z,3.60
2022-09-10T10:30:23.489Z,3.23
2022-09-10T10:33:19.142Z,3.73
2022-09-10T10:36:12.200Z,3.77
2022-09-10T10:39:05.859Z,4.37
2022-09-10T10:42:04.450Z,3.83
2022-09-10T10:45:00.764Z,4.30
2022-09-10T10:47:55.703Z,3.93
2022-09-10T10:50:54.173Z,4.90
2022-09-10T10:53:48.659Z,4.43
2022-09-10T10:56:40.662Z,6.07
2022-09-10T10:59:35.674Z,4.80
2022-09-10T11:02:30.569Z,4.67
2022-09-10T11:05:24.112Z,5.50
2022-09-10T11:08:16.602Z,5.20
2022-09-10T11:11:10.207Z,5.30
2022-09-10T11:14:01.114Z,5.50
2022-09-10T11:16:58.389Z,4.50
2022-09-10T11:20:00.583Z,4.57
2022-09-10T11:23:00.548Z,5.17
2022-09-10T11:25:55.207Z,4.40
2022-09-10T11:28:47.153Z,4.93
2022-09-10T11:31:38.451Z,6.80
2022-09-10T11:34:30.116Z,7.90
2022-09-10T11:37:21.256Z,8.40
2022-09-10T11:40:14.788Z,8.50
2022-09-10T11:43:08.287Z,7.43
2022-09-10T11:45:59.294Z,7.90
2022-09-10T11:48:50.519Z,7.10
2022-09-10T11:51:39.704Z,7.73
2022-09-10T11:54:31.337Z,8.10
2022-09-10T11:57:26.817Z,8.20
2022-09-10T12:00:17.883Z,9.23
2022-09-10T12:03:15.507Z,8.00
2022-09-10T12:06:08.618Z,8.77
2022-09-10T12:09:02.490Z,10.30
2022-09-10T12:11:53.922Z,10.77
2022-09-10T12:14:42.997Z,10.17
2022-09-10T12:17:35.583Z,10.70
2022-09-10T12:20:28.741Z,10.50
2022-09-10T12:23:19.113Z,9.40
2022-09-10T12:26:10.134Z,9.60
2022-09-10T12:29:03.900Z,10.60
2022-09-10T12:32:12.188Z,8.97
2022-09-10T12:35:18.660Z,6.73
2022-09-10T12:38:25.974Z,7.90
2022-09-10T12:41:36.368Z,7.17
2022-09-10T12:44:33.773Z,8.07
2022-09-10T12:47:41.025Z,8.30
2022-09-10T12:50:46.173Z,8.70
2022-09-10T12:53:50.012Z,9.77
2022-09-10T12:56:45.754Z,9.83
2022-09-10T12:59:44.837Z,10.50
2022-09-10T13:02:39.303Z,9.40
2022-09-10T13:05:31.436Z,9.90
2022-09-10T13:08:22.860Z,8.93
2022-09-10T13:11:17.363Z,10.20
2022-09-10T13:14:06.659Z,8.00
2022-09-10T13:16:57.413Z,10.40
2022-09-10T13:19:50.931Z,12.73
2022-09-10T13:23:03.887Z,8.30
2022-09-10T13:25:53.278Z,9.53
2022-09-10T13:29:02.012Z,11.50
2022-09-10T13:31:51.407Z,10.23
2022-09-10T13:34:55.748Z,11.20
2022-09-10T13:37:52.818Z,10.30
2022-09-10T13:40:58.440Z,10.27
2022-09-10T13:43:52.936Z,12.37
2022-09-10T13:46:42.976Z,12.23
2022-09-10T13:49:36.778Z,11.70
2022-09-10T13:52:30.261Z,12.20
2022-09-10T13:55:21.092Z,13.30
2022-09-10T13:58:12.687Z,12.10
2022-09-10T14:01:02.732Z,11.10
2022-09-10T14:03:51.904Z,11.90
2022-09-10T14:06:41.067Z,11.30
2022-09-10T14:09:32.525Z,11.40
2022-09-10T14:12:23.333Z,10.30
2022-09-10T14:15:17.093Z,12.57
2022-09-10T14:18:06.518Z,11.13
2022-09-10T14:20:55.320Z,11.90
2022-09-10T14:23:44.831Z,11.13
2022-09-10T14:26:35.604Z,10.30
2022-09-10T14:29:25.443Z,11.50
2022-09-10T14:32:21.922Z,12.40
2022-09-10T14:35:29.227Z,11.17
2022-09-10T14:38:26.004Z,12.40
2022-09-10T14:41:22.684Z,11.20
2022-09-10T14:44:20.102Z,12.00
2022-09-10T14:47:14.543Z,12.07
2022-09-10T14:50:27.114Z,12.20
2022-09-10T14:53:15.916Z,11.00
2022-09-10T14:56:05.099Z,10.73
2022-09-10T14:58:59.185Z,10.90
2022-09-10T15:01:49.961Z,13.47
2022-09-10T15:04:38.913Z,12.47
2022-09-10T15:07:28.083Z,13.03
2022-09-10T15:10:17.842Z,11.50
2022-09-10T15:13:07.287Z,12.40
2022-09-10T15:15:56.220Z,11.57
2022-09-10T15:18:46.516Z,11.40
2022-09-10T15:21:35.846Z,12.63
2022-09-10T15:24:25.139Z,11.90
2022-09-10T15:27:13.971Z,11.30
2022-09-10T15:30:02.799Z,10.70
2022-09-10T15:32:54.621Z,12.03
2022-09-10T15:35:44.887Z,11.40
2022-09-10T15:38:34.006Z,12.47
2022-09-10T15:41:22.827Z,10.43
2022-09-10T15:44:12.430Z,11.37
2022-09-10T15:47:01.286Z,10.80
2022-09-10T15:49:52.373Z,10.37
2022-09-10T15:52:43.761Z,11.20
2022-09-10T15:55:32.835Z,10.43
2022-09-10T15:58:21.625Z,9.67
2022-09-10T16:01:12.422Z,9.87
2022-09-10T16:04:02.990Z,10.37
2022-09-10T16:06:52.016Z,9.37
2022-09-10T16:09:42.629Z,9.03
2022-09-10T16:12:31.780Z,8.73
2022-09-10T16:15:20.658Z,8.60
2022-09-10T16:18:09.549Z,12.40
2022-09-10T16:21:06.549Z,8.00
2022-09-10T16:23:56.836Z,9.20
2022-09-10T16:26:47.970Z,9.07
2022-09-10T16:29:36.785Z,8.70
2022-09-10T16:32:25.712Z,9.90
2022-09-10T16:35:14.620Z,9.83
2022-09-10T16:38:03.574Z,10.47
2022-09-10T16:41:01.266Z,9.00
2022-09-10T16:43:51.451Z,8.43
2022-09-10T16:46:40.668Z,8.83
2022-09-10T16:49:29.483Z,9.87
2022-09-10T16:52:18.299Z,11.47
2022-09-10T16:55:07.322Z,9.63
2022-09-10T16:57:56.119Z,9.40
2022-09-10T17:00:46.781Z,9.17
2022-09-10T17:03:35.690Z,8.60
2022-09-10T17:06:25.463Z,9.63
2022-09-10T17:09:14.670Z,10.80
2022-09-10T17:12:03.730Z,10.17
2022-09-10T17:14:52.525Z,10.60
2022-09-10T17:17:42.969Z,10.53
2022-09-10T17:20:31.742Z,10.47
2022-09-10T17:23:20.523Z,11.03
2022-09-10T17:26:10.171Z,12.00
2022-09-10T17:28:59.766Z,12.27
2022-09-10T17:31:48.792Z,11.37
2022-09-10T17:34:38.979Z,10.90
2022-09-10T17:37:27.810Z,9.93
2022-09-10T17:40:16.603Z,12.27
2022-09-10T17:43:05.679Z,12.37
2022-09-10T17:45:55.063Z,12.40
2022-09-10T17:48:45.620Z,11.43
2022-09-10T17:51:37.327Z,12.07
2022-09-10T17:54:26.127Z,11.73
2022-09-10T17:57:17.456Z,11.33
2022-09-10T18:00:06.594Z,11.13
2022-09-10T18:02:55.449Z,10.43
2022-09-10T18:05:44.503Z,11.80
2022-09-10T18:08:35.134Z,12.13
2022-09-10T18:11:25.675Z,12.20
2022-09-10T18:14:17.343Z,14.60
2022-09-10T18:17:06.247Z,20.23
2022-09-10T18:19:55.134Z,20.30
2022-09-10T18:22:44.110Z,21.60
2022-09-10T18:25:34.570Z,18.60
2022-09-10T18:28:23.671Z,21.87
2022-09-10T18:31:14.453Z,24.20
2022-09-10T18:34:04.017Z,20.37
2022-09-10T18:36:54.725Z,23.83
2022-09-10T18:39:43.879Z,20.90
2022-09-10T18:42:34.218Z,21.40
2022-09-10T18:45:23.174Z,20.80
2022-09-10T18:48:12.034Z,22.33
2022-09-10T18:51:04.984Z,22.37
2022-09-10T18:53:54.818Z,23.70
2022-09-10T18:56:44.904Z,20.60
2022-09-10T18:59:35.554Z,22.30
2022-09-10T19:02:24.846Z,23.40
2022-09-10T19:05:14.232Z,20.27
2022-09-10T19:08:03.237Z,22.30
2022-09-10T19:10:54.244Z,25.60
2022-09-10T19:13:43.053Z,25.27
2022-09-10T19:16:34.044Z,26.20
2022-09-10T19:19:23.598Z,25.10
2022-09-10T19:22:13.329Z,25.37
2022-09-10T19:25:03.290Z,26.53
2022-09-10T19:27:52.732Z,26.87
2022-09-10T19:30:41.524Z,22.83
2022-09-10T19:33:31.693Z,25.87
2022-09-10T19:36:20.564Z,22.57
2022-09-10T19:39:10.420Z,25.00
2022-09-10T19:41:59.198Z,17.20
2022-09-10T19:44:48.038Z,16.50
2022-09-10T19:47:36.867Z,15.40
2022-09-10T19:50:27.792Z,16.50
2022-09-10T19:53:16.979Z,17.03
2022-09-10T19:56:06.742Z,18.10
2022-09-10T19:58:56.569Z,17.30
2022-09-10T20:01:45.944Z,18.87
2022-09-10T20:04:36.598Z,17.93
2022-09-10T20:07:27.668Z,16.93
2022-09-10T20:10:16.588Z,17.37
2022-09-10T20:13:06.059Z,16.67
2022-09-10T20:15:55.005Z,16.10
2022-09-10T20:18:44.753Z,17.23
2022-09-10T20:21:33.607Z,15.87
2022-09-10T20:24:23.839Z,15.57
2022-09-10T20:27:12.611Z,15.73
2022-09-10T20:30:02.706Z,15.37
2022-09-10T20:32:51.610Z,16.20
2022-09-10T20:35:43.772Z,18.30
2022-09-10T20:38:33.474Z,17.20
2022-09-10T20:41:24.007Z,18.97
2022-09-10T20:44:13.798Z,18.93
2022-09-10T20:47:03.395Z,15.97
2022-09-10T20:49:52.248Z,17.70
2022-09-10T20:52:42.660Z,16.70
2022-09-10T20:55:31.470Z,17.50
2022-09-10T20:58:24.118Z,16.90
2022-09-10T21:01:14.381Z,17.10
2022-09-10T21:04:04.010Z,16.23
2022-09-10T21:06:52.847Z,19.30
2022-09-10T21:09:41.817Z,24.73
2022-09-10T21:12:30.914Z,26.77
2022-09-10T21:15:21.243Z,25.83
2022-09-10T21:18:10.197Z,25.77
2022-09-10T21:21:06.289Z,29.50
2022-09-10T21:23:56.373Z,27.27
2022-09-10T21:26:45.418Z,26.97
2022-09-10T21:29:34.363Z,28.40
2022-09-10T21:32:24.496Z,28.07
2022-09-10T21:35:13.627Z,28.07
2022-09-10T21:38:02.402Z,25.07
2022-09-10T21:40:56.019Z,23.07
2022-09-10T21:43:45.726Z,26.17
2022-09-10T21:46:36.814Z,25.77
2022-09-10T21:49:27.020Z,27.13
2022-09-10T21:52:15.844Z,28.53
2022-09-10T21:55:05.208Z,26.67
2022-09-10T21:57:54.515Z,26.20
2022-09-10T22:00:43.550Z,27.90
2022-09-10T22:03:33.556Z,27.40
2022-09-10T22:06:24.743Z,29.17
2022-09-10T22:09:15.020Z,25.00
2022-09-10T22:12:04.027Z,27.43
2022-09-10T22:14:52.814Z,26.90
2022-09-10T22:17:41.574Z,24.47
2022-09-10T22:20:30.386Z,25.47
2022-09-10T22:23:20.595Z,18.50
2022-09-10T22:26:10.473Z,18.90
2022-09-10T22:29:00.211Z,17.47
2022-09-10T22:31:49.501Z,17.53
2022-09-10T22:34:38.947Z,22.10
2022-09-10T22:37:27.908Z,25.93
2022-09-10T22:40:18.055Z,26.27
2022-09-10T22:43:06.899Z,27.40
2022-09-10T22:45:55.768Z,17.37
2022-09-10T22:48:45.361Z,18.80
2022-09-10T22:51:36.049Z,25.27
2022-09-10T22:54:24.903Z,24.63
2022-09-10T22:57:15.038Z,27.80
2022-09-10T23:00:04.079Z,28.47
2022-09-10T23:02:54.722Z,27.27
2022-09-10T23:05:43.506Z,27.40
2022-09-10T23:08:32.493Z,26.27
2022-09-10T23:11:22.259Z,26.47
2022-09-10T23:14:15.392Z,25.27
2022-09-10T23:17:04.187Z,28.70
2022-09-10T23:19:52.999Z,24.90
2022-09-10T23:22:41.792Z,25.93
2022-09-10T23:25:31.035Z,26.17
2022-09-10T23:28:19.829Z,28.33
2022-09-10T23:31:13.169Z,28.37
2022-09-10T23:34:03.474Z,26.63
2022-09-10T23:36:53.241Z,27.70
2022-09-10T23:39:42.067Z,26.40
2022-09-10T23:42:31.246Z,26.70
2022-09-10T23:45:20.039Z,27.17
2022-09-10T23:48:10.276Z,27.10
2022-09-10T23:50:59.219Z,26.03
2022-09-10T23:53:48.330Z,25.80
2022-09-10T23:56:37.747Z,27.03
2022-09-10T23:59:26.515Z,26.47
